Time;durP1;ratioP1;P1;durP2;ratioP2;P2;SDS_P1;SDS_P2;PMS_P1;PMS_P2;Temp;Humidity;BMP_temperature;BMP_pressure;BME280_temperature;BME280_humidity;BME280_pressure;Samples;Min_cycle;Max_cycle;Signal;HPM_P1;HPM_P2
2022/12/26 00:00:17;;;;;;;7.35;4.53;;;;;;;11.18;100.00;100343.63;4922229;29;20052;-83
2022/12/26 00:02:45;;;;;;;7.85;4.57;;;;;;;11.06;100.00;100347.56;4910834;29;20103;-81
2022/12/26 00:05:11;;;;;;;7.35;4.45;;;;;;;11.11;100.00;100344.44;4916658;29;20076;-79
2022/12/26 00:07:38;;;;;;;6.95;4.80;;;;;;;11.11;100.00;100333.97;4921647;29;20412;-80
2022/12/26 00:10:19;;;;;;;9.95;4.53;;;;;;;11.14;100.00;100351.97;4921197;29;20048;-78
2022/12/26 00:12:49;;;;;;;9.60;4.80;;;;;;;11.02;100.00;100329.72;4920626;29;20435;-80
2022/12/26 00:15:15;;;;;;;7.85;4.53;;;;;;;11.08;100.00;100336.94;4918454;29;20048;-79
2022/12/26 00:17:42;;;;;;;6.85;4.15;;;;;;;11.15;100.00;100345.75;4918339;29;20515;-78
2022/12/26 00:20:11;;;;;;;6.53;3.95;;;;;;;11.28;100.00;100354.72;4921826;29;20130;-80
2022/12/26 00:22:38;;;;;;;7.88;4.78;;;;;;;11.27;100.00;100352.28;4921151;29;20134;-78
2022/12/26 00:25:05;;;;;;;5.97;3.97;;;;;;;11.26;100.00;100358.50;4921908;29;20131;-80
2022/12/26 00:27:32;;;;;;;7.90;5.20;;;;;;;11.21;100.00;100348.53;4920950;29;20464;-79
2022/12/26 00:29:59;;;;;;;12.52;4.50;;;;;;;11.22;100.00;100349.34;4921243;29;20123;-79
2022/12/26 00:32:25;;;;;;;7.68;4.80;;;;;;;11.29;100.00;100352.94;4921270;29;20048;-79
2022/12/26 00:34:52;;;;;;;9.60;4.57;;;;;;;11.35;100.00;100351.41;4921499;29;20476;-79
2022/12/26 00:37:20;;;;;;;9.18;4.85;;;;;;;11.27;100.00;100347.03;4920724;29;20048;-79
2022/12/26 00:39:46;;;;;;;8.98;4.85;;;;;;;11.29;100.00;100350.31;4919909;29;20059;-79
2022/12/26 00:42:13;;;;;;;7.78;4.03;;;;;;;11.26;100.00;100350.66;4920285;29;20134;-79
2022/12/26 00:44:40;;;;;;;9.50;5.75;;;;;;;11.20;100.00;100349.50;4920849;29;20142;-79
2022/12/26 00:47:07;;;;;;;8.38;5.00;;;;;;;11.15;100.00;100346.56;4920170;29;20119;-78
2022/12/26 00:49:33;;;;;;;9.43;4.68;;;;;;;11.21;100.00;100353.75;4921128;29;20522;-79
2022/12/26 00:52:00;;;;;;;8.30;4.47;;;;;;;11.18;100.00;100350.66;4918942;29;20112;-78
2022/12/26 00:54:28;;;;;;;10.88;4.65;;;;;;;11.24;100.00;100352.63;4919602;29;20070;-79
2022/12/26 00:56:55;;;;;;;10.02;5.28;;;;;;;11.25;100.00;100370.78;4919311;29;20580;-79
2022/12/26 00:59:21;;;;;;;9.32;4.97;;;;;;;11.30;100.00;100371.09;4918589;29;20087;-79
2022/12/26 01:01:48;;;;;;;6.55;4.18;;;;;;;11.24;100.00;100373.56;4918695;29;20196;-80
2022/12/26 01:04:14;;;;;;;7.55;4.30;;;;;;;11.17;100.00;100355.06;4921187;29;20474;-79
2022/12/26 01:06:41;;;;;;;8.05;5.03;;;;;;;11.30;100.00;100365.03;4921721;29;20487;-80
2022/12/26 01:09:10;;;;;;;7.72;4.50;;;;;;;11.27;100.00;100366.19;4920065;29;20142;-79
2022/12/26 01:11:41;;;;;;;8.90;5.13;;;;;;;11.26;100.00;100372.41;4918549;29;20052;-78
2022/12/26 01:14:10;;;;;;;11.30;4.60;;;;;;;11.22;100.00;100372.91;4918238;29;20484;-79
2022/12/26 01:16:37;;;;;;;8.57;4.10;;;;;;;11.29;100.00;100397.47;4918740;29;20052;-79
2022/12/26 01:19:04;;;;;;;11.60;5.13;;;;;;;11.28;100.00;100393.22;4917877;29;20142;-78
2022/12/26 01:21:31;;;;;;;8.40;4.55;;;;;;;11.40;99.98;100391.84;4918391;29;20056;-79
2022/12/26 01:23:57;;;;;;;7.82;4.90;;;;;;;11.45;99.76;100399.22;4918954;29;20082;-79
2022/12/26 01:26:24;;;;;;;8.43;4.78;;;;;;;11.44;99.69;100403.63;4918763;29;20063;-78
2022/12/26 01:28:53;;;;;;;11.02;5.32;;;;;;;11.46;99.30;100404.28;4919315;29;20328;-78
2022/12/26 01:31:21;;;;;;;11.48;5.18;;;;;;;11.34;99.86;100397.78;4918813;29;20461;-78
2022/12/26 01:33:47;;;;;;;13.43;5.32;;;;;;;11.35;100.00;100399.38;4917670;29;20103;-78
2022/12/26 01:36:15;;;;;;;11.35;4.65;;;;;;;11.34;100.00;100396.97;4917642;29;20559;-77
2022/12/26 01:38:42;;;;;;;7.15;4.50;;;;;;;11.31;100.00;100419.06;4917746;29;20104;-78
2022/12/26 01:41:18;;;;;;;11.32;4.60;;;;;;;11.31;100.00;100416.44;4918895;29;20148;-77
2022/12/26 01:43:55;;;;;;;11.15;5.25;;;;;;;11.38;100.00;100420.03;4918837;29;20056;-79
2022/12/26 01:46:27;;;;;;;9.95;4.80;;;;;;;11.43;99.94;100409.84;4918860;29;20059;-79
2022/12/26 01:48:54;;;;;;;6.75;4.40;;;;;;;11.49;99.51;100406.56;4919234;29;20086;-79
2022/12/26 01:51:24;;;;;;;7.53;4.30;;;;;;;11.51;99.50;100409.84;4919246;29;20075;-79
2022/12/26 01:53:56;;;;;;;12.18;4.57;;;;;;;11.56;99.27;100406.72;4919226;29;20464;-80
2022/12/26 01:56:29;;;;;;;9.15;4.68;;;;;;;11.66;98.81;100396.06;4919135;29;20139;-79
2022/12/26 01:59:03;;;;;;;8.48;4.93;;;;;;;11.71;98.43;100409.47;4921024;29;20120;-79
2022/12/26 02:01:33;;;;;;;6.40;4.40;;;;;;;11.62;98.28;100396.41;4924966;29;20076;-79
2022/12/26 02:06:47;;;;;;;9.00;4.47;;;;;;;11.48;98.59;100398.88;4918928;29;20063;-79
2022/12/26 02:09:13;;;;;;;8.43;4.43;;;;;;;11.47;98.54;100407.72;4920011;29;20083;-79
2022/12/26 02:11:44;;;;;;;7.65;4.22;;;;;;;11.54;98.40;100414.75;4919865;29;20052;-79
2022/12/26 02:14:12;;;;;;;7.90;4.68;;;;;;;11.48;98.26;100431.13;4918724;29;20491;-78
2022/12/26 02:16:40;;;;;;;8.63;4.38;;;;;;;11.43;98.31;100417.72;4919700;29;20492;-81
2022/12/26 02:19:22;;;;;;;10.40;4.40;;;;;;;11.45;98.13;100421.00;4919250;29;20143;-80
2022/12/26 02:22:16;;;;;;;10.90;5.13;;;;;;;11.34;98.54;100410.88;4920515;29;20058;-80
2022/12/26 02:25:07;;;;;;;8.88;4.47;;;;;;;11.33;98.65;100424.97;4920906;29;20135;-80
2022/12/26 02:27:54;;;;;;;9.75;4.55;;;;;;;11.33;98.80;100422.34;4905157;29;20063;-79
2022/12/26 02:30:33;;;;;;;6.88;4.15;;;;;;;11.28;98.94;100424.63;4911614;29;20090;-81
2022/12/26 02:33:32;;;;;;;8.50;4.13;;;;;;;11.29;98.99;100421.03;4913822;29;20048;-81
2022/12/26 02:36:17;;;;;;;9.25;4.07;;;;;;;11.36;99.05;100431.66;4906473;29;20091;-80
2022/12/26 02:38:52;;;;;;;11.35;4.93;;;;;;;11.39;98.62;100421.66;4905225;29;20052;-79
2022/12/26 02:41:26;;;;;;;15.00;4.55;;;;;;;11.47;98.35;100436.53;4922052;29;20075;-81
2022/12/26 02:47:01;;;;;;;9.52;4.40;;;;;;;11.43;98.52;100453.59;4925392;29;20460;-80
2022/12/26 02:47:04;;;;;;;7.65;3.95;;;;;;;11.49;98.25;100463.41;4924264;29;20059;-80
2022/12/26 03:14:56;;;;;;;4.63;3.25;;;;;;;11.43;99.39;100428.19;4928618;29;20059;-78
2022/12/26 03:17:28;;;;;;;7.00;3.72;;;;;;;11.30;99.76;100433.16;4930903;29;20076;-78
2022/12/26 03:20:01;;;;;;;6.78;3.60;;;;;;;11.26;100.00;100451.00;4930420;29;20135;-79
2022/12/26 03:22:36;;;;;;;6.35;4.05;;;;;;;11.32;100.00;100456.56;4930351;29;20060;-78
2022/12/26 03:27:51;;;;;;;8.52;4.25;;;;;;;10.98;100.00;100455.72;4945249;23;20037;-80
2022/12/26 03:33:01;;;;;;;7.47;5.13;;;;;;;10.73;100.00;100461.94;4944835;29;20063;-82
2022/12/26 03:35:31;;;;;;;7.07;4.88;;;;;;;10.71;100.00;100463.88;4944043;29;20179;-82
2022/12/26 03:38:04;;;;;;;8.00;4.13;;;;;;;10.65;100.00;100464.53;4943549;29;20047;-82
2022/12/26 04:20:27;;;;;;;4.47;3.65;;;;;;;10.37;100.00;100507.63;4942094;29;20063;-83
2022/12/26 04:45:28;;;;;;;6.18;5.18;;;;;;;10.27;100.00;100498.09;4942004;29;20083;-83
2022/12/26 04:50:49;;;;;;;7.10;5.07;;;;;;;10.19;100.00;100498.06;4943154;29;20061;-81
2022/12/26 04:53:15;;;;;;;6.30;5.18;;;;;;;10.16;100.00;100500.94;4942789;29;20123;-83
2022/12/26 04:55:42;;;;;;;7.50;5.72;;;;;;;10.10;100.00;100500.75;4943499;29;20131;-82
2022/12/26 04:58:10;;;;;;;6.95;5.90;;;;;;;10.06;100.00;100489.78;4942922;29;20111;-84
2022/12/26 05:00:37;;;;;;;6.85;5.53;;;;;;;10.05;100.00;100482.91;4942744;29;20079;-83
2022/12/26 05:11:22;;;;;;;6.50;5.35;;;;;;;10.01;100.00;100505.13;4942118;29;20122;-85
2022/12/26 05:13:53;;;;;;;9.20;5.90;;;;;;;10.03;100.00;100507.56;4942566;29;20091;-82
2022/12/26 05:30:07;;;;;;;10.65;5.18;;;;;;;10.29;100.00;100521.47;4940211;29;20135;-80
2022/12/26 05:35:18;;;;;;;10.23;4.60;;;;;;;10.28;100.00;100518.03;4932381;29;20059;-79
2022/12/26 05:37:45;;;;;;;6.00;4.50;;;;;;;10.32;100.00;100517.72;4938599;29;20079;-86
2022/12/26 05:40:12;;;;;;;8.98;4.70;;;;;;;10.26;100.00;100508.72;4939349;29;20111;-79
2022/12/26 05:42:38;;;;;;;11.38;4.53;;;;;;;10.23;100.00;100515.06;4941582;29;20135;-81
2022/12/26 05:45:07;;;;;;;9.02;4.50;;;;;;;10.23;100.00;100519.47;4942926;29;20115;-82
2022/12/26 05:47:34;;;;;;;6.82;4.15;;;;;;;10.18;100.00;100525.16;4941600;29;20169;-82
2022/12/26 05:50:00;;;;;;;9.23;4.65;;;;;;;10.15;100.00;100515.00;4942564;29;20075;-79
2022/12/26 05:52:27;;;;;;;12.98;4.45;;;;;;;10.08;100.00;100513.16;4942094;29;20079;-81
2022/12/26 05:54:53;;;;;;;5.40;4.15;;;;;;;10.05;100.00;100488.16;4941426;29;20134;-81
2022/12/26 05:57:20;;;;;;;7.05;4.47;;;;;;;9.97;100.00;100485.47;4942390;29;20115;-82
2022/12/26 05:59:46;;;;;;;5.63;3.50;;;;;;;9.99;100.00;100504.44;4940393;29;20154;-82
2022/12/26 06:02:15;;;;;;;5.25;3.33;;;;;;;9.89;100.00;100515.03;4942680;29;20111;-82
2022/12/26 06:04:41;;;;;;;4.32;3.08;;;;;;;9.88;100.00;100517.81;4942082;29;20139;-82
2022/12/26 06:07:08;;;;;;;4.30;2.88;;;;;;;9.87;100.00;100516.16;4941827;29;20256;-82
2022/12/26 06:09:34;;;;;;;3.45;2.95;;;;;;;9.89;100.00;100524.66;4942439;29;20111;-82
2022/12/26 06:12:01;;;;;;;5.78;3.20;;;;;;;9.86;100.00;100530.19;4942781;29;20130;-83
2022/12/26 06:14:28;;;;;;;7.07;2.80;;;;;;;9.87;100.00;100526.63;4943005;29;20056;-82
2022/12/26 06:16:54;;;;;;;4.63;3.08;;;;;;;9.80;100.00;100520.38;4941301;29;20136;-83
2022/12/26 06:19:22;;;;;;;7.22;3.13;;;;;;;9.82;100.00;100523.63;4942358;29;20407;-83
2022/12/26 06:21:51;;;;;;;7.03;3.00;;;;;;;9.78;100.00;100528.34;4941805;29;20130;-82
2022/12/26 06:24:18;;;;;;;3.22;2.92;;;;;;;9.78;100.00;100541.41;4941968;29;20130;-83
2022/12/26 06:26:45;;;;;;;5.28;3.40;;;;;;;9.84;100.00;100542.59;4942169;29;20079;-84
2022/12/26 06:29:11;;;;;;;6.10;3.50;;;;;;;9.81;100.00;100548.13;4942453;29;20091;-84
2022/12/26 06:31:38;;;;;;;4.32;3.05;;;;;;;9.79;100.00;100543.06;4941651;29;20071;-80
2022/12/26 06:34:05;;;;;;;3.67;2.80;;;;;;;9.78;100.00;100548.44;4941491;29;20052;-82
2022/12/26 06:36:33;;;;;;;4.32;3.08;;;;;;;9.77;100.00;100536.34;4943313;29;20064;-82
2022/12/26 06:39:00;;;;;;;3.40;2.70;;;;;;;9.73;100.00;100527.16;4943406;29;20075;-83
2022/12/26 06:41:26;;;;;;;5.63;2.33;;;;;;;9.68;100.00;100542.47;4943429;29;20122;-82
2022/12/26 06:43:54;;;;;;;3.35;2.50;;;;;;;9.67;100.00;100530.38;4942647;29;20115;-83
2022/12/26 06:46:23;;;;;;;3.78;2.60;;;;;;;9.64;100.00;100537.56;4941945;29;20047;-84
2022/12/26 06:48:50;;;;;;;3.47;2.78;;;;;;;9.69;100.00;100544.13;4942171;29;20058;-83
2022/12/26 06:51:19;;;;;;;5.03;3.38;;;;;;;9.65;100.00;100535.75;4941637;29;20055;-85
2022/12/26 06:53:48;;;;;;;4.43;3.08;;;;;;;9.60;100.00;100538.84;4941132;29;20060;-83
2022/12/26 06:56:17;;;;;;;4.25;3.10;;;;;;;9.59;100.00;100550.25;4943611;29;20107;-81
2022/12/26 06:58:44;;;;;;;3.35;2.92;;;;;;;9.57;100.00;100536.53;4943499;29;20578;-82
2022/12/26 07:01:15;;;;;;;2.83;2.50;;;;;;;9.70;100.00;100545.75;4941773;29;20052;-82
2022/12/26 07:03:43;;;;;;;3.10;2.28;;;;;;;9.69;100.00;100555.41;4943101;29;20130;-84
2022/12/26 07:06:20;;;;;;;5.93;2.63;;;;;;;9.73;100.00;100561.13;4942234;29;20487;-85
2022/12/26 07:08:49;;;;;;;3.60;2.55;;;;;;;9.75;100.00;100580.91;4942031;29;20048;-82
2022/12/26 07:11:18;;;;;;;2.47;2.15;;;;;;;9.77;100.00;100563.28;4943473;29;20186;-82
2022/12/26 07:13:46;;;;;;;2.85;2.35;;;;;;;9.79;100.00;100560.53;4945162;29;20138;-81
2022/12/26 07:16:13;;;;;;;2.45;1.90;;;;;;;9.82;100.00;100560.22;4945263;29;20048;-82
2022/12/26 07:18:44;;;;;;;3.78;2.72;;;;;;;9.84;100.00;100566.13;4945593;29;20126;-84
2022/12/26 07:21:13;;;;;;;3.10;1.85;;;;;;;9.88;100.00;100576.13;4945041;29;20310;-84
2022/12/26 07:23:40;;;;;;;4.05;2.03;;;;;;;9.90;100.00;100573.34;4945015;29;20106;-81
2022/12/26 07:26:09;;;;;;;2.17;1.98;;;;;;;9.90;100.00;100571.56;4944500;29;20079;-85
2022/12/26 07:28:35;;;;;;;3.05;2.08;;;;;;;9.90;100.00;100583.81;4945377;29;20541;-84
2022/12/26 07:31:03;;;;;;;3.17;2.40;;;;;;;9.90;100.00;100583.81;4945980;29;20107;-81
2022/12/26 07:33:30;;;;;;;3.45;2.20;;;;;;;9.83;100.00;100583.59;4945673;29;20059;-81
2022/12/26 07:35:59;;;;;;;2.78;1.92;;;;;;;9.85;100.00;100597.34;4944697;29;20059;-82
2022/12/26 07:38:26;;;;;;;2.40;1.90;;;;;;;9.82;100.00;100594.19;4945236;29;20052;-84
2022/12/26 07:40:55;;;;;;;2.67;2.13;;;;;;;9.76;100.00;100592.19;4945934;29;20079;-84
2022/12/26 07:43:23;;;;;;;3.03;2.00;;;;;;;9.70;100.00;100595.41;4946388;29;20070;-83
2022/12/26 07:45:51;;;;;;;3.00;2.20;;;;;;;9.62;100.00;100589.13;4947403;29;20523;-85
2022/12/26 07:48:18;;;;;;;3.47;2.33;;;;;;;9.62;100.00;100590.94;4946555;29;20063;-83
2022/12/26 07:50:46;;;;;;;4.68;2.22;;;;;;;9.56;100.00;100594.97;4946206;29;20079;-84
2022/12/26 07:53:14;;;;;;;2.17;1.90;;;;;;;9.56;100.00;100597.56;4945378;29;20115;-83
2022/12/26 07:55:43;;;;;;;3.53;2.05;;;;;;;9.54;100.00;100598.69;4944943;29;20043;-86
2022/12/26 07:58:12;;;;;;;1.95;1.65;;;;;;;9.51;100.00;100593.75;4945855;29;20442;-84
2022/12/26 08:00:40;;;;;;;2.40;2.20;;;;;;;9.52;100.00;100588.38;4946133;29;20075;-86
2022/12/26 08:03:09;;;;;;;2.55;2.30;;;;;;;9.49;100.00;100593.91;4946283;29;20082;-86
2022/12/26 08:05:35;;;;;;;4.40;2.38;;;;;;;9.49;100.00;100604.38;4946969;29;20055;-84
2022/12/26 08:08:02;;;;;;;3.22;2.38;;;;;;;9.44;100.00;100598.78;4944851;29;20088;-83
2022/12/26 08:10:28;;;;;;;3.58;2.60;;;;;;;9.43;100.00;100605.00;4948198;29;20094;-83
2022/12/26 08:12:55;;;;;;;7.93;2.38;;;;;;;9.44;100.00;100611.84;4948133;29;20131;-81
2022/12/26 08:15:22;;;;;;;3.03;2.63;;;;;;;9.43;100.00;100599.75;4948095;29;20115;-81
2022/12/26 08:17:53;;;;;;;4.07;2.70;;;;;;;9.40;100.00;100607.06;4947004;29;20107;-82
2022/12/26 08:20:20;;;;;;;4.00;2.92;;;;;;;9.47;100.00;100598.47;4947048;29;20062;-82
2022/12/26 08:22:46;;;;;;;3.55;3.05;;;;;;;9.45;100.00;100584.72;4945535;29;20075;-83
2022/12/26 08:25:13;;;;;;;4.45;3.03;;;;;;;9.60;100.00;100609.38;4946967;29;20478;-82
2022/12/26 08:27:39;;;;;;;4.10;3.05;;;;;;;9.70;100.00;100611.09;4948457;29;20088;-80
2022/12/26 08:30:07;;;;;;;3.40;2.63;;;;;;;9.72;100.00;100614.38;4947419;29;20078;-80
2022/12/26 08:32:34;;;;;;;5.07;3.22;;;;;;;9.75;100.00;100607.06;4930610;29;20112;-81
2022/12/26 08:35:02;;;;;;;6.35;3.20;;;;;;;9.85;100.00;100606.97;4939763;29;20082;-81
2022/12/26 08:37:29;;;;;;;4.53;2.92;;;;;;;9.86;100.00;100603.38;4947732;29;20050;-83
2022/12/26 08:39:56;;;;;;;4.38;2.78;;;;;;;9.90;100.00;100604.72;4945640;29;20047;-82
2022/12/26 08:42:22;;;;;;;7.97;3.45;;;;;;;9.92;100.00;100602.78;4946705;29;20138;-81
2022/12/26 08:44:49;;;;;;;4.82;3.28;;;;;;;9.99;100.00;100603.78;4947219;29;20083;-79
2022/12/26 08:47:16;;;;;;;5.68;2.88;;;;;;;9.90;100.00;100592.47;4947331;29;20071;-84
2022/12/26 08:49:42;;;;;;;3.67;3.10;;;;;;;9.99;100.00;100609.84;4941452;29;20048;-82
2022/12/26 08:52:13;;;;;;;5.25;3.38;;;;;;;10.03;100.00;100618.19;4946811;29;20242;-82
2022/12/26 08:54:40;;;;;;;5.45;3.22;;;;;;;10.04;100.00;100624.25;4946367;29;20055;-85
2022/12/26 08:57:08;;;;;;;5.25;3.05;;;;;;;10.05;100.00;100616.25;4947069;29;20123;-85
2022/12/26 08:59:35;;;;;;;6.15;3.42;;;;;;;10.09;100.00;100635.06;4946153;29;20079;-82
2022/12/26 09:02:01;;;;;;;6.43;3.45;;;;;;;10.12;100.00;100635.59;4947835;29;20087;-82
2022/12/26 09:04:35;;;;;;;5.18;3.30;;;;;;;10.01;100.00;100616.69;4949504;29;20340;-84
2022/12/26 09:07:10;;;;;;;6.88;4.78;;;;;;;10.17;100.00;100648.19;4944883;29;20103;-80
2022/12/26 09:09:38;;;;;;;7.95;3.88;;;;;;;10.01;100.00;100627.97;4939759;29;20063;-82
2022/12/26 09:12:06;;;;;;;5.20;3.33;;;;;;;10.07;100.00;100637.81;4942150;29;20056;-88
2022/12/26 09:14:42;;;;;;;5.05;3.38;;;;;;;10.18;100.00;100666.34;4937696;29;20063;-82
2022/12/26 09:17:10;;;;;;;4.15;3.30;;;;;;;10.11;100.00;100639.16;4942126;29;20065;-87
2022/12/26 09:19:37;;;;;;;5.93;3.17;;;;;;;10.23;100.00;100642.41;4935200;29;20055;-82
2022/12/26 09:24:57;;;;;;;6.95;3.30;;;;;;;10.46;100.00;100664.44;4944463;29;20062;-82
2022/12/26 09:27:23;;;;;;;5.18;3.17;;;;;;;10.40;100.00;100659.81;4944269;29;20051;-80
2022/12/26 09:29:50;;;;;;;6.22;3.50;;;;;;;10.43;100.00;100663.91;4968375;23;20118;-78
2022/12/26 09:32:18;;;;;;;5.15;3.70;;;;;;;10.37;100.00;100673.22;4959973;28;20398;-78
2022/12/26 09:34:44;;;;;;;6.60;3.25;;;;;;;10.41;100.00;100674.53;4958807;28;20514;-79
2022/12/26 09:37:18;;;;;;;5.68;3.35;;;;;;;10.32;100.00;100666.81;4958017;29;20078;-80
2022/12/26 09:39:44;;;;;;;4.93;3.08;;;;;;;10.38;100.00;100684.50;4953442;29;20059;-81
2022/12/26 09:42:27;;;;;;;5.28;3.70;;;;;;;10.30;100.00;100680.84;4942429;29;20051;-78
2022/12/26 09:45:00;;;;;;;5.55;3.08;;;;;;;10.47;100.00;100701.88;4949887;29;20087;-81
2022/12/26 09:47:32;;;;;;;5.43;3.00;;;;;;;10.46;100.00;100705.47;4957873;29;20047;-80
2022/12/26 09:50:03;;;;;;;4.80;2.73;;;;;;;10.44;100.00;100712.66;4958811;29;20085;-80
2022/12/26 09:52:38;;;;;;;5.60;2.92;;;;;;;10.51;100.00;100711.06;4958654;28;20342;-82
2022/12/26 09:55:25;;;;;;;7.30;2.83;;;;;;;10.52;100.00;100707.47;4958150;29;20118;-81
2022/12/26 09:57:57;;;;;;;4.00;2.83;;;;;;;10.57;100.00;100707.84;4959353;29;20107;-82
2022/12/26 10:00:28;;;;;;;4.60;2.53;;;;;;;10.57;100.00;100700.81;4959537;29;20047;-79
2022/12/26 10:03:04;;;;;;;5.63;2.83;;;;;;;10.62;99.95;100701.16;4960366;29;20138;-81
2022/12/26 10:05:55;;;;;;;6.18;3.00;;;;;;;10.60;99.80;100699.69;4958111;28;20551;-79
2022/12/26 10:29:42;;;;;;;7.88;2.75;;;;;;;10.88;96.35;100722.06;4943235;29;20044;-83
2022/12/26 10:32:14;;;;;;;6.38;3.50;;;;;;;10.91;95.96;100716.53;4951857;28;20155;-82
2022/12/26 10:34:42;;;;;;;7.93;3.00;;;;;;;10.86;95.47;100718.81;4945892;29;20071;-82
2022/12/26 10:37:18;;;;;;;5.28;3.08;;;;;;;10.82;95.88;100706.19;4959517;29;20047;-81
2022/12/26 10:39:51;;;;;;;4.72;3.03;;;;;;;10.76;96.14;100702.41;4958004;28;20067;-82
2022/12/26 10:42:24;;;;;;;5.65;3.00;;;;;;;10.72;96.52;100685.38;4952133;29;20047;-80
2022/12/26 10:44:54;;;;;;;6.90;2.88;;;;;;;10.78;96.21;100674.28;4958970;28;20047;-81
2022/12/26 10:47:25;;;;;;;4.00;2.63;;;;;;;10.84;96.23;100693.78;4948773;29;20047;-81
2022/12/26 10:49:58;;;;;;;6.50;2.83;;;;;;;10.97;95.67;100702.00;4946410;29;20114;-80
2022/12/26 10:52:35;;;;;;;5.30;2.80;;;;;;;10.93;95.30;100691.00;4946960;29;20063;-81
2022/12/26 10:55:08;;;;;;;4.93;3.10;;;;;;;10.88;95.08;100688.03;4945071;29;20055;-79
2022/12/26 10:57:36;;;;;;;;;;;;;;;10.92;94.91;100691.16;4944337;29;20091;-80
2022/12/26 11:00:14;;;;;;;4.28;2.47;;;;;;;10.96;94.52;100698.56;4942613;29;19923;-79
2022/12/26 11:02:40;;;;;;;6.50;2.50;;;;;;;10.94;93.92;100697.06;4923374;29;20495;-80
2022/12/26 11:05:09;;;;;;;4.93;2.63;;;;;;;10.91;93.70;100684.28;4924103;29;20120;-81
2022/12/26 11:07:38;;;;;;;4.88;2.65;;;;;;;10.90;93.13;100699.19;4923941;29;20075;-81
2022/12/26 11:10:14;;;;;;;4.88;2.50;;;;;;;10.93;93.21;100706.72;4933198;29;20583;-80
2022/12/26 11:12:48;;;;;;;5.97;3.47;;;;;;;11.04;93.03;100694.34;4942981;29;20071;-81
2022/12/26 11:15:23;;;;;;;4.25;2.30;;;;;;;11.01;92.99;100702.50;4945079;29;20071;-82
2022/12/26 11:17:52;;;;;;;5.78;2.42;;;;;;;10.96;92.93;100709.03;4945096;29;20051;-79
2022/12/26 11:20:27;;;;;;;5.53;2.28;;;;;;;11.04;93.27;100699.56;4942938;29;20089;-81
2022/12/26 11:22:54;;;;;;;5.75;2.80;;;;;;;11.10;92.88;100691.09;4943333;29;20058;-81
2022/12/26 11:25:26;;;;;;;5.85;2.78;;;;;;;11.14;92.96;100695.03;4941598;29;20498;-79
2022/12/26 11:27:54;;;;;;;7.90;2.65;;;;;;;11.12;93.00;100689.13;4946170;28;20051;-82
2022/12/26 11:30:25;;;;;;;3.42;2.35;;;;;;;11.13;93.01;100688.97;4957188;28;20086;-81
2022/12/26 11:33:05;;;;;;;7.43;2.90;;;;;;;11.11;92.18;100692.72;4950618;29;20563;-81
2022/12/26 11:35:36;;;;;;;6.15;2.63;;;;;;;11.09;92.03;100707.78;4951096;29;20075;-81
2022/12/26 11:38:04;;;;;;;4.97;3.75;;;;;;;11.10;91.44;100701.56;4968180;29;20047;-82
2022/12/26 11:40:36;;;;;;;9.35;2.90;;;;;;;11.17;91.01;100710.44;4957874;29;20066;-81
2022/12/26 11:43:06;;;;;;;8.77;2.70;;;;;;;11.15;90.91;100694.06;4959876;28;20061;-81
2022/12/26 11:45:41;;;;;;;6.00;2.78;;;;;;;11.10;90.92;100701.56;4943932;29;20051;-80
2022/12/26 11:48:23;;;;;;;5.57;2.78;;;;;;;11.08;90.84;100695.66;4940480;29;20130;-80
2022/12/26 11:50:53;;;;;;;5.00;2.40;;;;;;;11.10;90.75;100712.84;4941807;29;20063;-83
2022/12/26 11:53:23;;;;;;;4.75;2.20;;;;;;;11.18;89.65;100701.59;4943177;29;20114;-81
2022/12/26 11:56:08;;;;;;;7.75;2.67;;;;;;;11.30;89.74;100706.41;4946694;29;20111;-81
2022/12/26 11:58:41;;;;;;;6.50;2.80;;;;;;;11.27;89.86;100711.13;4945068;28;20139;-81
2022/12/26 12:01:23;;;;;;;6.63;2.53;;;;;;;11.24;89.97;100714.06;4942441;29;20056;-83
2022/12/26 12:03:59;;;;;;;4.28;2.28;;;;;;;11.17;90.10;100703.41;4942861;29;20579;-81
2022/12/26 12:06:55;;;;;;;8.55;2.78;;;;;;;11.09;90.77;100707.78;4944002;29;20120;-82
2022/12/26 12:09:38;;;;;;;4.10;3.08;;;;;;;11.08;91.14;100700.91;4932301;29;20048;-81
2022/12/26 12:12:13;;;;;;;4.57;2.38;;;;;;;11.05;91.22;100703.84;4940391;29;20047;-81
2022/12/26 12:14:56;;;;;;;4.82;2.63;;;;;;;11.02;91.74;100720.69;4925830;29;20074;-82
2022/12/26 12:17:30;;;;;;;10.80;2.95;;;;;;;10.94;91.29;100703.13;4939098;29;20090;-82
2022/12/26 12:20:14;;;;;;;5.47;2.45;;;;;;;10.86;91.32;100718.81;4940565;29;20080;-79
2022/12/26 12:22:56;;;;;;;7.30;2.63;;;;;;;10.86;91.31;100716.19;4940634;29;20063;-82
2022/12/26 12:25:32;;;;;;;7.65;2.80;;;;;;;10.81;91.07;100705.38;4939921;29;20050;-81
2022/12/26 12:28:04;;;;;;;6.80;2.30;;;;;;;10.78;90.95;100705.69;4940365;29;20114;-82
2022/12/26 12:30:41;;;;;;;5.85;2.63;;;;;;;10.76;91.29;100714.66;4940375;29;20134;-82
2022/12/26 12:33:28;;;;;;;4.55;2.33;;;;;;;10.75;91.36;100705.16;4939934;29;20119;-81
2022/12/26 12:36:06;;;;;;;4.40;2.58;;;;;;;10.76;91.95;100707.63;4941253;29;20055;-82
2022/12/26 12:38:42;;;;;;;5.63;3.08;;;;;;;10.74;92.38;100711.38;4939138;29;20056;-82
2022/12/26 12:41:43;;;;;;;3.97;2.33;;;;;;;10.74;92.77;100695.69;4941579;29;20055;-81
2022/12/26 12:48:23;;;;;;;5.75;2.60;;;;;;;10.69;93.80;100690.91;4944902;29;20145;-84
2022/12/26 13:09:19;;;;;;;4.05;2.70;;;;;;;10.58;94.85;100691.16;4884635;29;20070;-83
2022/12/26 13:17:53;;;;;;;6.32;3.03;;;;;;;10.52;95.91;100710.91;4885739;29;20049;-83
2022/12/26 13:27:24;;;;;;;9.90;3.90;;;;;;;9.91;100.00;100716.13;4968435;28;20066;-83
2022/12/26 14:24:06;;;;;;;11.73;4.10;;;;;;;8.37;100.00;100774.22;4802965;29;20059;-81
2022/12/26 14:27:14;;;;;;;9.38;4.10;;;;;;;8.49;100.00;100789.59;4801330;29;20051;-83
2022/12/26 14:30:26;;;;;;;6.43;3.92;;;;;;;8.43;100.00;100799.75;4814064;29;20055;-83
2022/12/26 14:33:26;;;;;;;9.32;4.15;;;;;;;8.44;100.00;100807.44;4809376;29;20115;-82
2022/12/26 14:39:15;;;;;;;10.27;3.60;;;;;;;8.38;100.00;100786.28;4913640;29;20080;-80
2022/12/26 14:45:36;;;;;;;7.05;4.30;;;;;;;8.51;100.00;100831.97;4957949;28;20581;-82
2022/12/26 14:48:26;;;;;;;6.50;3.95;;;;;;;8.55;100.00;100840.34;4962205;28;20059;-81
2022/12/26 14:51:15;;;;;;;5.93;4.03;;;;;;;8.55;100.00;100829.91;4954366;29;20059;-81
2022/12/26 14:53:47;;;;;;;6.78;3.67;;;;;;;8.42;100.00;100818.97;4954570;29;20054;-80
2022/12/26 14:56:37;;;;;;;7.90;3.53;;;;;;;8.45;99.19;100829.94;4960238;28;20043;-82
2022/12/26 14:59:29;;;;;;;8.40;4.03;;;;;;;8.46;97.64;100835.97;4961469;28;20056;-80
2022/12/26 15:02:31;;;;;;;4.65;3.22;;;;;;;8.31;94.70;100832.91;4951810;29;20516;-81
2022/12/26 15:05:11;;;;;;;6.05;3.35;;;;;;;8.27;91.78;100840.19;4956711;29;20051;-80
2022/12/26 15:08:07;;;;;;;5.22;2.85;;;;;;;8.25;89.19;100844.72;4955145;29;20055;-80
2022/12/26 15:11:13;;;;;;;6.28;3.50;;;;;;;8.18;88.50;100855.81;4959967;28;20062;-80
2022/12/26 15:14:37;;;;;;;4.88;2.58;;;;;;;8.09;86.37;100864.44;4965844;28;20075;-81
2022/12/26 15:17:13;;;;;;;;;;;;;;;8.03;85.77;100865.81;4965827;28;20057;-81
2022/12/26 15:20:27;;;;;;;5.63;2.80;;;;;;;8.00;85.78;100866.09;4976290;28;19993;-81
2022/12/26 15:23:17;;;;;;;6.13;2.83;;;;;;;7.96;84.25;100878.56;4969853;28;20059;-82
2022/12/26 15:26:09;;;;;;;6.32;3.08;;;;;;;7.86;83.88;100879.47;4970493;28;20102;-79
2022/12/26 15:28:52;;;;;;;5.90;3.10;;;;;;;7.84;83.58;100886.59;4964513;28;20435;-80
2022/12/26 15:31:36;;;;;;;4.97;2.70;;;;;;;7.79;84.42;100899.19;4976197;28;20070;-80
2022/12/26 15:34:18;;;;;;;6.22;3.15;;;;;;;7.81;84.91;100898.09;4980558;28;20043;-80
2022/12/26 15:36:55;;;;;;;6.75;3.40;;;;;;;7.67;83.52;100895.84;4979960;28;20059;-80
2022/12/26 15:39:32;;;;;;;4.90;2.97;;;;;;;7.69;83.46;100908.75;4950935;29;20044;-81
2022/12/26 15:42:10;;;;;;;6.68;3.53;;;;;;;7.70;83.59;100926.03;4965248;28;20047;-81
2022/12/26 15:44:49;;;;;;;6.53;3.70;;;;;;;7.56;84.20;100909.78;4963297;28;20067;-81
2022/12/26 15:47:27;;;;;;;4.97;3.53;;;;;;;7.68;84.69;100938.34;4965400;28;20054;-81
2022/12/26 15:50:09;;;;;;;7.32;3.53;;;;;;;7.61;85.32;100938.03;4958264;28;20058;-82